Time;durP1;ratioP1;P1;durP2;ratioP2;P2;SDS_P1;SDS_P2;PMS_P1;PMS_P2;Temp;Humidity;BMP_temperature;BMP_pressure;BME280_temperature;BME280_humidity;BME280_pressure;Samples;Min_cycle;Max_cycle;Signal;HPM_P1;HPM_P2
2022/08/07 00:01:58;;;;;;;7.43;6.83;;;;;;;24.56;60.26;94586.22;5033837;28;20466;-82
2022/08/07 00:04:24;;;;;;;7.27;6.70;;;;;;;24.50;60.32;94584.44;5033880;28;20431;-82
2022/08/07 00:06:51;;;;;;;8.70;7.63;;;;;;;24.60;60.88;94592.81;5034167;28;20530;-81
2022/08/07 00:09:18;;;;;;;7.53;6.93;;;;;;;24.60;60.31;94598.19;5033550;28;20648;-81
2022/08/07 00:11:45;;;;;;;7.77;7.17;;;;;;;24.71;61.37;94596.59;5015695;28;20573;-81
2022/08/07 00:14:12;;;;;;;7.20;6.50;;;;;;;24.77;60.39;94598.38;5033669;28;20458;-81
2022/08/07 00:16:39;;;;;;;9.67;7.17;;;;;;;24.87;60.15;94600.56;5032679;28;20450;-80
2022/08/07 00:19:07;;;;;;;9.43;7.80;;;;;;;24.89;59.99;94587.72;5033472;28;20824;-81
2022/08/07 00:21:34;;;;;;;7.40;6.80;;;;;;;24.98;59.87;94594.41;5034001;28;20470;-82
2022/08/07 00:24:01;;;;;;;8.40;7.57;;;;;;;24.90;60.11;94595.56;5033541;28;20442;-82
2022/08/07 00:26:27;;;;;;;7.93;7.20;;;;;;;24.89;59.80;94598.47;5033336;28;20438;-81
2022/08/07 00:28:54;;;;;;;11.53;7.60;;;;;;;24.93;60.65;94589.72;5033551;28;20430;-81
2022/08/07 00:31:21;;;;;;;8.73;7.40;;;;;;;24.91;59.58;94588.31;4998783;28;20833;-81
2022/08/07 00:33:48;;;;;;;8.20;7.27;;;;;;;24.93;60.37;94596.97;5033565;28;20439;-82
2022/08/07 00:36:16;;;;;;;7.20;6.60;;;;;;;24.96;59.81;94597.34;5033491;28;20800;-80
2022/08/07 00:38:43;;;;;;;7.27;6.67;;;;;;;24.99;60.42;94601.47;5032776;28;20446;-81
2022/08/07 00:41:10;;;;;;;7.40;6.73;;;;;;;25.05;59.94;94608.59;5032319;28;20446;-80
2022/08/07 00:43:37;;;;;;;7.50;6.87;;;;;;;25.19;60.56;94606.59;5032893;28;20458;-81
2022/08/07 00:46:04;;;;;;;8.07;7.37;;;;;;;25.26;59.71;94607.31;5032740;28;20486;-81
2022/08/07 00:48:31;;;;;;;8.53;7.63;;;;;;;25.32;59.45;94604.53;5033571;28;20454;-81
2022/08/07 00:50:59;;;;;;;7.80;7.10;;;;;;;25.26;58.49;94596.56;5033119;28;20486;-81
2022/08/07 00:53:27;;;;;;;8.03;7.23;;;;;;;25.30;59.58;94598.56;5033057;28;20443;-82
2022/08/07 00:55:54;;;;;;;9.63;7.63;;;;;;;25.13;58.08;94600.22;5033501;28;20446;-81
2022/08/07 00:58:21;;;;;;;7.30;6.70;;;;;;;25.01;59.01;94604.72;5033341;28;20450;-81
2022/08/07 01:00:49;;;;;;;7.47;6.87;;;;;;;24.97;59.43;94603.53;5033474;28;20560;-81
2022/08/07 01:03:18;;;;;;;7.43;6.80;;;;;;;24.96;60.31;94597.34;5032235;28;20496;-82
2022/08/07 01:05:46;;;;;;;7.13;6.53;;;;;;;25.01;60.90;94604.72;5032089;28;20477;-81
2022/08/07 01:08:13;;;;;;;7.23;6.63;;;;;;;25.12;60.40;94595.91;5031960;28;20438;-81
2022/08/07 01:10:42;;;;;;;7.87;6.90;;;;;;;25.23;60.91;94602.38;5013212;28;20438;-80
2022/08/07 01:13:11;;;;;;;8.50;7.60;;;;;;;25.24;59.22;94607.53;5031839;28;20497;-81
2022/08/07 01:15:38;;;;;;;10.10;7.17;;;;;;;25.34;58.96;94612.34;5034985;28;20452;-79
2022/08/07 01:18:06;;;;;;;8.03;7.23;;;;;;;25.36;59.91;94610.25;5035617;28;20443;-81
2022/08/07 01:20:41;;;;;;;7.77;7.17;;;;;;;25.36;60.38;94609.44;5036082;28;20496;-80
2022/08/07 01:23:11;;;;;;;9.73;8.27;;;;;;;25.35;60.08;94611.31;5036830;28;20441;-80
2022/08/07 01:25:39;;;;;;;7.53;6.83;;;;;;;25.37;60.49;94609.19;5036544;28;20505;-80
2022/08/07 01:28:06;;;;;;;7.60;6.97;;;;;;;25.34;59.41;94609.66;5036708;28;20442;-81
2022/08/07 01:30:33;;;;;;;12.03;6.67;;;;;;;25.27;59.81;94617.81;5018146;28;20449;-80
2022/08/07 01:33:00;;;;;;;10.30;7.70;;;;;;;25.22;61.13;94615.00;5036372;28;20478;-82
2022/08/07 01:35:27;;;;;;;8.03;7.23;;;;;;;25.17;61.25;94609.50;5037142;28;21076;-80
2022/08/07 01:37:54;;;;;;;8.70;7.77;;;;;;;25.19;61.72;94607.41;5036631;28;20458;-80
2022/08/07 01:40:24;;;;;;;7.90;7.37;;;;;;;25.14;61.49;94599.19;5036582;28;20446;-80
2022/08/07 01:42:51;;;;;;;8.67;7.87;;;;;;;25.16;61.72;94613.22;5036533;28;20450;-80
2022/08/07 01:45:20;;;;;;;8.87;8.07;;;;;;;25.19;61.38;94620.00;5036561;28;20452;-81
2022/08/07 01:47:48;;;;;;;7.47;6.83;;;;;;;25.21;60.64;94624.09;5036236;28;20938;-81
2022/08/07 01:50:15;;;;;;;8.27;7.33;;;;;;;25.16;60.42;94623.97;5035988;28;20956;-78
2022/08/07 01:52:47;;;;;;;9.60;8.70;;;;;;;25.22;60.83;94635.66;5036309;28;20475;-80
2022/08/07 01:55:15;;;;;;;7.17;6.67;;;;;;;25.26;61.69;94642.22;5017121;28;20453;-81
2022/08/07 01:57:45;;;;;;;7.83;6.70;;;;;;;25.25;60.83;94659.38;5035035;28;20458;-80
2022/08/07 02:00:13;;;;;;;8.00;7.20;;;;;;;25.23;61.05;94673.03;5034638;28;20848;-81
2022/08/07 02:02:46;;;;;;;8.10;7.00;;;;;;;24.88;61.22;94699.66;5049009;28;20457;-81
2022/08/07 02:05:18;;;;;;;7.27;6.67;;;;;;;24.59;62.89;94693.13;5034589;28;20458;-80
2022/08/07 02:07:50;;;;;;;7.83;7.23;;;;;;;24.57;63.30;94702.41;5034905;28;20446;-79
2022/08/07 02:10:22;;;;;;;10.00;7.40;;;;;;;24.61;62.87;94700.97;5034589;28;20497;-81
2022/08/07 02:12:52;;;;;;;9.80;6.90;;;;;;;24.71;63.36;94707.47;5016091;28;20482;-81
2022/08/07 02:15:22;;;;;;;8.17;7.47;;;;;;;24.83;63.35;94720.13;5035123;28;20953;-81
2022/08/07 02:17:51;;;;;;;9.03;8.23;;;;;;;24.66;64.95;94734.13;5034925;28;20453;-82
2022/08/07 02:20:19;;;;;;;15.03;8.00;;;;;;;24.72;66.45;94732.44;5035087;28;20462;-80
2022/08/07 02:22:47;;;;;;;9.50;8.07;;;;;;;24.74;67.65;94733.03;5035083;28;20446;-81
2022/08/07 02:25:17;;;;;;;9.53;8.73;;;;;;;24.73;69.46;94722.50;5034808;28;20442;-81
2022/08/07 02:27:45;;;;;;;10.10;9.10;;;;;;;24.60;69.90;94718.94;5034752;28;20447;-80
2022/08/07 02:30:14;;;;;;;9.27;8.43;;;;;;;24.51;69.86;94722.91;5034935;28;20442;-81
2022/08/07 02:32:41;;;;;;;7.87;7.27;;;;;;;24.50;70.58;94704.34;5035123;28;20482;-81
2022/08/07 02:35:10;;;;;;;9.37;8.53;;;;;;;24.51;70.85;94696.09;5035426;28;20446;-82
2022/08/07 02:37:40;;;;;;;10.53;8.67;;;;;;;24.50;72.33;94691.75;5035341;28;20454;-81
2022/08/07 02:40:10;;;;;;;8.87;8.07;;;;;;;24.34;73.27;94686.97;5035274;28;20474;-82
2022/08/07 02:42:37;;;;;;;10.07;8.77;;;;;;;24.26;74.44;94666.56;5035537;28;20451;-81
2022/08/07 02:45:07;;;;;;;10.80;8.47;;;;;;;24.34;75.00;94670.88;5035550;28;20438;-81
2022/08/07 02:47:35;;;;;;;11.90;10.03;;;;;;;24.28;75.66;94659.16;5035415;28;20442;-81
2022/08/07 02:50:03;;;;;;;9.20;8.20;;;;;;;24.22;75.34;94656.50;5035485;28;20446;-81
2022/08/07 02:52:36;;;;;;;10.80;8.93;;;;;;;24.23;76.24;94647.41;5034863;28;20475;-81
2022/08/07 02:55:11;;;;;;;9.33;8.53;;;;;;;24.24;76.66;94641.81;5035262;28;20872;-82
2022/08/07 02:57:40;;;;;;;11.00;10.00;;;;;;;24.25;76.39;94654.19;5035882;28;20442;-82
2022/08/07 03:00:09;;;;;;;10.40;9.40;;;;;;;24.17;75.97;94649.13;5035312;28;20478;-81
2022/08/07 03:02:40;;;;;;;11.23;8.47;;;;;;;24.18;76.71;94647.25;5049455;28;20450;-81
2022/08/07 03:05:08;;;;;;;10.73;9.70;;;;;;;24.07;77.08;94646.94;5034951;28;20492;-82
2022/08/07 03:07:36;;;;;;;10.00;9.17;;;;;;;23.93;77.33;94647.25;5035084;28;20454;-82
2022/08/07 03:10:04;;;;;;;12.63;8.90;;;;;;;23.76;77.80;94646.97;5034580;28;20454;-82
2022/08/07 03:12:33;;;;;;;9.47;8.30;;;;;;;23.81;77.87;94641.78;5016287;28;20478;-81
2022/08/07 03:15:01;;;;;;;10.23;9.40;;;;;;;23.84;78.07;94625.28;5034571;28;20435;-81
2022/08/07 03:17:28;;;;;;;10.40;9.33;;;;;;;23.79;77.82;94627.78;5034753;28;20434;-80
2022/08/07 03:26:42;;;;;;;12.80;9.57;;;;;;;23.61;78.57;94619.66;5034352;28;20406;-82
2022/08/07 03:29:11;;;;;;;10.87;9.40;;;;;;;23.47;79.03;94610.88;5034258;28;20443;-81
2022/08/07 03:31:40;;;;;;;9.30;8.50;;;;;;;23.47;78.47;94622.41;5049562;28;20442;-82
2022/08/07 03:34:09;;;;;;;10.00;9.00;;;;;;;23.45;78.78;94621.81;5034393;28;20445;-82
2022/08/07 03:36:39;;;;;;;10.67;8.93;;;;;;;23.41;79.10;94623.25;5034201;28;20516;-82
2022/08/07 03:39:09;;;;;;;10.00;9.00;;;;;;;23.44;79.03;94628.22;5034044;28;20937;-82
2022/08/07 03:41:37;;;;;;;9.50;8.60;;;;;;;23.53;78.66;94627.94;5034000;28;20455;-82
2022/08/07 03:44:06;;;;;;;8.83;8.03;;;;;;;23.56;78.24;94609.59;5034553;28;20849;-81
2022/08/07 03:46:34;;;;;;;14.53;9.50;;;;;;;23.67;77.89;94621.47;5033862;28;20454;-81
2022/08/07 03:49:02;;;;;;;10.37;8.80;;;;;;;23.67;77.54;94629.50;5034126;28;20443;-81
2022/08/07 03:51:33;;;;;;;9.70;8.80;;;;;;;23.68;77.63;94623.94;5034004;28;20435;-82
2022/08/07 03:53:59;;;;;;;9.17;8.33;;;;;;;23.72;77.21;94625.16;5034090;28;20454;-80
2022/08/07 03:56:27;;;;;;;8.83;8.03;;;;;;;24.04;77.22;94631.28;5033836;28;20443;-80
2022/08/07 03:58:54;;;;;;;8.93;8.20;;;;;;;24.37;74.76;94638.25;5034000;28;20435;-85
2022/08/07 04:01:24;;;;;;;9.10;8.20;;;;;;;24.62;74.13;94641.72;5033493;28;20470;-81
2022/08/07 04:03:51;;;;;;;9.80;8.83;;;;;;;24.75;73.13;94643.41;5034133;28;20446;-83
2022/08/07 04:06:17;;;;;;;10.43;9.43;;;;;;;24.85;73.88;94651.75;5033758;28;20526;-83
2022/08/07 04:08:46;;;;;;;10.03;9.00;;;;;;;24.97;73.54;94657.22;5033758;28;20508;-82
2022/08/07 04:11:13;;;;;;;10.20;9.20;;;;;;;25.24;73.65;94668.50;5033794;28;20454;-82
2022/08/07 04:13:41;;;;;;;8.93;8.23;;;;;;;25.47;72.89;94655.16;5033865;28;20470;-82
2022/08/07 04:16:08;;;;;;;8.60;7.80;;;;;;;25.71;70.97;94664.13;5033533;28;20995;-83
2022/08/07 04:18:36;;;;;;;9.33;8.50;;;;;;;25.99;69.94;94658.13;5033969;28;20455;-82
2022/08/07 04:21:04;;;;;;;8.87;8.17;;;;;;;26.45;68.90;94653.91;5033667;28;20457;-83
2022/08/07 04:23:32;;;;;;;8.50;7.70;;;;;;;26.92;66.34;94660.06;5033352;28;20449;-84
2022/08/07 04:26:02;;;;;;;8.60;7.90;;;;;;;27.15;63.88;94668.13;5032490;28;20571;-84
2022/08/07 04:28:29;;;;;;;10.23;7.83;;;;;;;27.45;62.79;94670.59;5033312;28;20504;-82
2022/08/07 04:30:56;;;;;;;8.50;7.70;;;;;;;27.73;62.39;94669.81;5048074;28;20445;-83
2022/08/07 04:33:25;;;;;;;7.47;6.87;;;;;;;27.86;62.18;94676.81;5033409;28;20501;-84
2022/08/07 04:35:53;;;;;;;8.57;7.67;;;;;;;27.77;63.90;94672.88;5033313;28;20435;-84
2022/08/07 04:38:20;;;;;;;9.40;8.47;;;;;;;28.00;63.97;94685.41;5033128;28;20446;-84
2022/08/07 04:40:48;;;;;;;8.80;7.83;;;;;;;28.26;62.44;94682.13;5033240;28;20941;-83
2022/08/07 04:43:17;;;;;;;10.80;6.80;;;;;;;28.62;61.32;94679.97;5033074;28;20447;-83
2022/08/07 04:45:55;;;;;;;8.90;8.00;;;;;;;28.85;60.35;94679.00;5033415;28;20546;-84
2022/08/07 04:48:30;;;;;;;11.50;8.17;;;;;;;28.90;60.32;94669.06;5033149;28;20932;-84
2022/08/07 04:51:05;;;;;;;8.90;8.20;;;;;;;29.19;60.27;94683.25;5036883;28;20453;-82
2022/08/07 04:53:39;;;;;;;9.93;9.00;;;;;;;29.44;59.96;94685.47;5037417;28;20482;-83
2022/08/07 04:56:15;;;;;;;9.50;8.47;;;;;;;29.62;58.84;94700.56;5037376;28;20438;-82
2022/08/07 04:58:50;;;;;;;9.53;8.43;;;;;;;29.76;57.97;94699.09;5037207;28;20465;-82
2022/08/07 05:01:39;;;;;;;10.70;7.90;;;;;;;29.84;57.75;94698.66;5036980;28;20545;-83
2022/08/07 05:04:10;;;;;;;9.60;8.73;;;;;;;29.74;56.65;94697.72;5037313;28;20808;-83
2022/08/07 05:06:47;;;;;;;9.10;8.23;;;;;;;29.65;56.53;94699.25;5036569;28;20443;-86
2022/08/07 05:09:24;;;;;;;9.50;8.70;;;;;;;29.74;56.42;94697.72;5037339;28;20462;-83
2022/08/07 05:12:14;;;;;;;8.40;7.70;;;;;;;29.94;57.02;94708.75;5037216;28;20973;-84
2022/08/07 05:14:44;;;;;;;8.93;8.13;;;;;;;30.02;55.89;94716.41;5033797;28;20942;-79
2022/08/07 05:17:15;;;;;;;9.70;8.00;;;;;;;30.07;55.51;94718.38;5017349;28;20451;-83
2022/08/07 05:19:49;;;;;;;9.60;8.70;;;;;;;30.10;55.55;94716.00;5015384;28;20440;-85
2022/08/07 05:22:20;;;;;;;11.27;8.20;;;;;;;30.22;56.20;94718.53;5016951;28;20451;-85
2022/08/07 05:24:49;;;;;;;7.97;7.23;;;;;;;30.40;54.63;94728.19;5017047;28;20535;-84
2022/08/07 05:34:09;;;;;;;9.57;8.70;;;;;;;30.50;54.03;94722.84;5016729;28;20455;-81
2022/08/07 05:36:38;;;;;;;9.83;7.77;;;;;;;30.66;54.62;94719.25;5016886;28;20431;-85
2022/08/07 05:39:07;;;;;;;9.40;8.50;;;;;;;30.91;52.26;94734.84;5025902;28;20983;-84
2022/08/07 05:41:35;;;;;;;10.80;8.23;;;;;;;31.13;52.57;94726.59;5036509;28;20450;-81
2022/08/07 05:44:02;;;;;;;8.30;7.60;;;;;;;31.29;51.65;94722.94;5036647;28;20450;-82
2022/08/07 05:46:29;;;;;;;9.43;8.53;;;;;;;31.49;51.88;94737.66;5036497;28;20450;-83
2022/08/07 05:52:18;;;;;;;8.80;8.10;;;;;;;31.73;51.99;94747.03;5022579;28;20472;-83
2022/08/07 05:54:46;;;;;;;12.63;8.53;;;;;;;31.73;51.82;94744.31;5036068;28;20442;-84
2022/08/07 05:57:15;;;;;;;12.30;8.60;;;;;;;31.46;51.66;94749.03;5035861;28;20968;-85
2022/08/07 05:59:45;;;;;;;7.77;7.17;;;;;;;31.52;52.51;94753.44;5036153;28;20474;-83
2022/08/07 06:02:15;;;;;;;8.90;8.00;;;;;;;31.86;52.04;94757.41;5036020;28;20485;-83
2022/08/07 06:04:48;;;;;;;8.90;8.10;;;;;;;32.17;50.11;94739.31;5035789;28;20929;-84
2022/08/07 06:07:15;;;;;;;7.70;7.00;;;;;;;32.52;48.51;94759.47;5035974;28;20446;-84
2022/08/07 06:09:42;;;;;;;8.67;7.87;;;;;;;32.57;47.21;94752.16;5033092;28;20992;-84
2022/08/07 06:12:11;;;;;;;10.37;7.83;;;;;;;32.47;46.83;94756.78;5034272;28;20467;-84
2022/08/07 06:14:38;;;;;;;7.90;7.30;;;;;;;32.48;47.48;94756.50;5035561;28;20458;-84
2022/08/07 06:17:07;;;;;;;7.37;6.80;;;;;;;32.51;47.19;94750.53;5035685;28;20457;-83
2022/08/07 06:19:34;;;;;;;8.03;7.20;;;;;;;32.46;46.87;94750.53;5035506;28;20451;-84
2022/08/07 06:22:02;;;;;;;8.67;7.87;;;;;;;32.32;47.93;94749.41;5035799;28;20934;-83
2022/08/07 06:24:30;;;;;;;6.80;6.30;;;;;;;32.35;48.48;94755.09;5034565;28;20457;-83
2022/08/07 06:26:57;;;;;;;8.27;7.30;;;;;;;32.39;48.07;94749.97;5035201;28;20930;-83
2022/08/07 06:29:28;;;;;;;10.53;8.50;;;;;;;32.50;46.50;94743.44;5034531;28;20946;-83
2022/08/07 06:31:55;;;;;;;8.40;7.70;;;;;;;32.41;46.76;94745.09;5034599;28;20442;-83
2022/08/07 06:34:24;;;;;;;7.67;6.93;;;;;;;32.48;45.90;94748.34;5034666;28;21035;-83
2022/08/07 06:36:51;;;;;;;6.97;6.37;;;;;;;32.47;44.51;94744.00;5028858;28;20436;-83
2022/08/07 06:39:18;;;;;;;7.90;7.20;;;;;;;32.53;44.17;94750.25;5030848;28;20453;-83
2022/08/07 06:41:49;;;;;;;7.90;7.20;;;;;;;32.74;45.19;94762.78;5035120;28;20443;-82
2022/08/07 06:47:39;;;;;;;9.40;7.57;;;;;;;32.34;44.88;94745.31;5032833;28;20933;-83
2022/08/07 06:50:07;;;;;;;8.93;7.83;;;;;;;32.10;46.00;94746.09;5034937;28;20853;-83
2022/08/07 06:52:37;;;;;;;8.77;7.97;;;;;;;32.17;47.25;94738.50;5016410;28;20457;-82
2022/08/07 06:55:07;;;;;;;8.47;7.27;;;;;;;31.85;47.14;94758.50;5032766;28;20606;-83
2022/08/07 06:57:35;;;;;;;9.00;8.23;;;;;;;31.71;46.45;94755.44;5034516;28;20443;-82
2022/08/07 07:00:03;;;;;;;8.87;8.07;;;;;;;31.67;46.83;94753.50;5034746;28;20687;-82
2022/08/07 07:02:32;;;;;;;12.20;8.20;;;;;;;31.65;47.34;94758.38;5035030;28;20443;-81
2022/08/07 07:05:00;;;;;;;9.90;9.00;;;;;;;31.69;46.82;94751.31;5034889;28;20443;-82
2022/08/07 07:07:27;;;;;;;10.30;9.13;;;;;;;31.60;47.49;94747.50;5033581;28;21184;-83
2022/08/07 07:16:42;;;;;;;8.97;8.10;;;;;;;31.53;47.68;94757.78;5034054;28;20945;-83
2022/08/07 07:19:12;;;;;;;12.73;8.80;;;;;;;31.17;47.09;94759.44;5035264;28;20439;-84
2022/08/07 07:21:42;;;;;;;10.27;9.20;;;;;;;31.01;48.15;94755.81;5034751;28;20459;-82
2022/08/07 07:24:09;;;;;;;10.30;9.40;;;;;;;31.02;48.03;94754.72;5034603;28;20449;-84
2022/08/07 07:26:43;;;;;;;9.07;8.27;;;;;;;30.93;47.17;94742.72;5033029;28;20431;-82
2022/08/07 07:29:13;;;;;;;13.27;8.97;;;;;;;30.83;46.60;94743.47;5022346;28;20446;-83
2022/08/07 07:31:45;;;;;;;9.93;8.40;;;;;;;31.07;48.25;94755.56;5032628;28;20442;-82
2022/08/07 07:34:15;;;;;;;9.63;8.73;;;;;;;31.19;48.00;94755.41;5032711;28;20491;-83
2022/08/07 07:36:45;;;;;;;10.90;8.60;;;;;;;31.06;47.97;94748.53;5032189;28;20438;-83
2022/08/07 07:39:14;;;;;;;12.80;7.70;;;;;;;31.25;48.74;94762.50;5032029;28;20474;-83
2022/08/07 07:41:45;;;;;;;8.63;7.83;;;;;;;31.43;48.68;94763.94;5020277;28;20459;-83
2022/08/07 07:44:14;;;;;;;10.80;8.33;;;;;;;31.49;47.40;94773.75;5015487;28;20796;-82
2022/08/07 07:46:43;;;;;;;8.43;7.73;;;;;;;31.64;46.93;94760.25;5033385;28;20447;-82
2022/08/07 07:49:12;;;;;;;9.33;8.47;;;;;;;31.76;46.09;94770.09;5033932;28;20451;-82
2022/08/07 07:51:40;;;;;;;8.20;7.40;;;;;;;31.65;47.04;94769.22;5015545;28;20518;-83
2022/08/07 07:54:09;;;;;;;8.83;8.13;;;;;;;31.69;45.90;94762.19;5034037;28;20479;-83
2022/08/07 07:56:38;;;;;;;8.97;8.00;;;;;;;31.59;46.20;94762.97;5033785;28;20451;-82
2022/08/07 07:59:06;;;;;;;9.40;8.13;;;;;;;31.43;45.48;94766.66;5015307;28;20449;-82
2022/08/07 08:01:34;;;;;;;9.40;8.40;;;;;;;31.20;44.95;94762.44;5033664;28;20443;-82
2022/08/07 08:04:05;;;;;;;9.10;8.30;;;;;;;31.07;45.71;94760.19;5033772;28;20445;-82
2022/08/07 08:06:32;;;;;;;9.80;8.80;;;;;;;31.28;45.54;94747.59;5033637;28;21558;-82
2022/08/07 08:09:02;;;;;;;9.37;8.10;;;;;;;31.34;44.75;94758.22;5033249;28;21203;-84
2022/08/07 08:11:30;;;;;;;9.90;9.00;;;;;;;31.23;43.50;94764.66;5033478;28;20458;-83
2022/08/07 08:13:57;;;;;;;9.27;8.47;;;;;;;31.23;42.25;94759.25;5033188;28;21062;-84
2022/08/07 08:16:31;;;;;;;10.90;9.13;;;;;;;31.33;43.83;94758.47;5033686;28;20438;-83
2022/08/07 08:19:00;;;;;;;10.90;9.90;;;;;;;31.26;43.90;94768.75;5033592;28;20781;-84
2022/08/07 08:27:08;;;;;;;10.77;9.70;;;;;;;31.18;44.79;94770.03;5032982;28;20842;-81
2022/08/07 08:29:42;;;;;;;9.50;8.60;;;;;;;30.87;44.68;94751.91;5033355;28;20450;-82
2022/08/07 08:32:11;;;;;;;11.57;9.87;;;;;;;30.92;45.82;94769.00;5033443;28;20439;-84
2022/08/07 08:34:40;;;;;;;13.57;9.97;;;;;;;31.02;45.25;94768.28;5033129;28;20474;-84
2022/08/07 08:37:09;;;;;;;12.53;9.67;;;;;;;31.09;44.97;94766.97;5032874;28;20439;-83
2022/08/07 08:39:37;;;;;;;9.93;8.93;;;;;;;31.23;44.47;94780.13;5032836;28;20450;-81
2022/08/07 08:42:11;;;;;;;11.70;9.13;;;;;;;30.66;46.28;94784.25;5033383;28;20438;-84
2022/08/07 08:44:43;;;;;;;10.70;9.70;;;;;;;30.08;46.93;94780.41;5033518;28;20461;-83
2022/08/07 08:47:21;;;;;;;10.47;9.37;;;;;;;29.45;48.89;94780.94;5022416;28;20852;-83
2022/08/07 08:49:56;;;;;;;12.07;11.07;;;;;;;29.40;49.33;94775.44;5014172;28;20435;-83
2022/08/07 08:52:28;;;;;;;10.87;9.87;;;;;;;29.39;49.87;94776.50;5032013;28;20799;-83
2022/08/07 08:55:00;;;;;;;12.13;9.53;;;;;;;29.26;50.82;94781.19;5031793;28;20477;-82
2022/08/07 08:57:37;;;;;;;10.73;9.73;;;;;;;29.13;49.70;94772.63;5032163;28;20443;-81
2022/08/07 09:00:08;;;;;;;10.13;9.10;;;;;;;29.22;49.75;94771.16;5015856;28;20506;-77
2022/08/07 09:02:41;;;;;;;12.37;8.90;;;;;;;29.36;49.37;94767.00;5013079;28;20910;-78
2022/08/07 09:05:22;;;;;;;10.37;9.43;;;;;;;29.02;50.39;94778.94;5013103;28;20447;-77
2022/08/07 09:07:59;;;;;;;11.03;9.97;;;;;;;29.26;52.03;94769.56;5012735;28;20447;-77
2022/08/07 09:10:32;;;;;;;11.07;9.10;;;;;;;29.23;50.55;94761.97;5012474;28;20455;-78
2022/08/07 09:13:09;;;;;;;11.00;10.00;;;;;;;29.31;51.49;94764.22;5032373;28;20454;-78
2022/08/07 09:15:47;;;;;;;10.90;9.90;;;;;;;29.48;49.92;94766.91;5032712;28;20507;-76
2022/08/07 09:18:26;;;;;;;10.57;9.53;;;;;;;29.41;48.99;94764.34;5031470;28;20446;-77
2022/08/07 09:21:04;;;;;;;9.57;8.70;;;;;;;29.27;49.16;94757.69;5013305;28;20802;-78
2022/08/07 09:23:41;;;;;;;16.63;11.13;;;;;;;29.28;51.41;94757.44;5013786;28;20479;-77
2022/08/07 09:26:18;;;;;;;14.53;11.70;;;;;;;29.31;52.39;94753.41;4994277;28;20829;-77
2022/08/07 09:28:53;;;;;;;9.83;8.43;;;;;;;29.24;50.74;94755.50;5024201;28;20458;-77
2022/08/07 09:31:32;;;;;;;8.90;8.10;;;;;;;29.32;49.97;94749.66;5012866;28;20454;-87
2022/08/07 09:34:11;;;;;;;8.50;7.53;;;;;;;29.08;49.82;94740.13;5014853;28;20475;-83
2022/08/07 09:36:43;;;;;;;9.00;8.20;;;;;;;28.94;50.25;94740.47;5035541;28;20442;-83
2022/08/07 09:39:24;;;;;;;9.47;8.60;;;;;;;28.95;50.60;94738.59;5036115;28;20442;-83
2022/08/07 09:42:10;;;;;;;9.93;9.03;;;;;;;29.02;50.32;94739.22;5035201;28;20443;-81
2022/08/07 09:44:48;;;;;;;13.83;9.73;;;;;;;29.05;51.84;94729.81;5017020;28;20431;-79
2022/08/07 09:47:27;;;;;;;11.03;9.43;;;;;;;28.99;50.12;94735.16;5016735;28;20443;-79
2022/08/07 09:50:02;;;;;;;14.80;9.87;;;;;;;29.17;54.58;94727.81;5017724;28;20455;-79
2022/08/07 09:52:34;;;;;;;9.13;8.27;;;;;;;29.27;49.04;94731.47;5030176;28;20473;-78
2022/08/07 09:55:06;;;;;;;11.03;9.50;;;;;;;29.60;51.34;94737.88;5034788;28;20562;-77
2022/08/07 09:58:25;;;;;;;9.70;8.60;;;;;;;29.86;48.28;94730.88;5035912;28;20439;-77
2022/08/07 10:01:04;;;;;;;10.10;8.20;;;;;;;29.87;48.70;94737.91;4986161;28;20578;-79
2022/08/07 10:03:49;;;;;;;11.50;10.23;;;;;;;29.80;50.35;94729.19;4994281;28;20535;-78
2022/08/07 10:06:51;;;;;;;9.77;8.57;;;;;;;29.60;47.85;94724.34;4961972;28;20460;-78
2022/08/07 10:09:29;;;;;;;11.43;9.57;;;;;;;29.52;49.73;94733.72;4897409;29;21023;-80
2022/08/07 10:12:14;;;;;;;8.83;8.10;;;;;;;29.44;50.33;94723.34;4897385;29;20936;-78
2022/08/07 10:18:44;;;;;;;11.10;7.40;;;;;;;28.99;49.23;94716.22;4897873;29;20455;-81
2022/08/07 10:21:24;;;;;;;8.50;7.70;;;;;;;29.08;49.45;94719.31;4847732;29;20467;-80
2022/08/07 10:24:04;;;;;;;8.97;8.17;;;;;;;29.24;51.42;94714.94;4860762;29;20485;-78
2022/08/07 10:26:43;;;;;;;11.00;8.47;;;;;;;29.50;50.82;94708.81;4860583;29;20466;-79
2022/08/07 10:29:36;;;;;;;7.60;6.90;;;;;;;29.67;46.83;94708.75;4845281;29;20542;-79
2022/08/07 10:32:20;;;;;;;7.67;7.07;;;;;;;29.79;46.88;94719.44;4860902;29;20803;-79
2022/08/07 10:35:09;;;;;;;7.90;7.20;;;;;;;29.99;47.12;94721.53;4857613;29;20475;-79
2022/08/07 10:37:45;;;;;;;7.50;6.90;;;;;;;30.12;46.01;94711.16;4865066;29;20469;-78
2022/08/07 10:40:21;;;;;;;7.30;6.70;;;;;;;30.11;45.75;94723.06;4879345;29;20461;-79
2022/08/07 10:43:00;;;;;;;8.43;7.63;;;;;;;30.07;46.42;94724.66;4878020;29;20526;-79
2022/08/07 10:45:33;;;;;;;8.47;7.63;;;;;;;30.09;47.68;94721.69;4902280;28;20466;-78
2022/08/07 10:48:12;;;;;;;7.90;7.30;;;;;;;30.17;45.52;94723.91;5005562;28;20459;-77
2022/08/07 10:50:46;;;;;;;7.93;7.13;;;;;;;30.06;44.05;94717.56;5005974;28;20448;-78
2022/08/07 10:53:23;;;;;;;8.00;7.30;;;;;;;30.06;44.28;94711.34;5005802;28;20445;-78
2022/08/07 10:55:53;;;;;;;7.77;7.07;;;;;;;29.89;44.23;94733.06;5028855;28;20486;-78
2022/08/07 10:58:39;;;;;;;7.90;7.20;;;;;;;29.78;44.58;94723.19;5034398;28;20482;-77
2022/08/07 11:01:22;;;;;;;8.37;7.67;;;;;;;29.50;46.23;94718.81;5031647;28;20473;-77
2022/08/07 11:03:56;;;;;;;9.97;8.97;;;;;;;29.15;48.45;94724.53;5034244;28;20485;-77
2022/08/07 11:06:34;;;;;;;10.33;8.67;;;;;;;28.73;55.71;94727.69;5034386;28;20445;-78
2022/08/07 11:09:07;;;;;;;10.00;7.40;;;;;;;27.93;58.13;94726.03;5034742;28;20454;-77
2022/08/07 11:11:44;;;;;;;9.60;8.70;;;;;;;27.89;59.27;94726.75;5034068;28;20926;-77
2022/08/07 11:14:17;;;;;;;9.13;8.23;;;;;;;27.91;59.66;94728.16;5033662;28;20493;-77
2022/08/07 11:16:50;;;;;;;13.83;8.87;;;;;;;27.77;58.44;94726.81;5034187;28;20816;-78
2022/08/07 11:19:24;;;;;;;9.40;8.50;;;;;;;27.69;58.17;94730.69;5033493;28;20461;-78
2022/08/07 11:22:02;;;;;;;9.80;8.90;;;;;;;27.83;59.79;94719.63;5033967;28;20806;-78
2022/08/07 11:24:37;;;;;;;9.33;8.43;;;;;;;28.15;55.68;94709.97;5029122;28;20557;-78
2022/08/07 11:27:12;;;;;;;7.97;7.23;;;;;;;28.46;54.57;94707.81;5032007;28;20446;-77
2022/08/07 11:29:43;;;;;;;9.00;8.20;;;;;;;28.76;52.81;94715.56;5033875;28;20544;-79
2022/08/07 11:32:15;;;;;;;8.67;7.90;;;;;;;28.97;52.31;94715.66;5034132;28;20459;-78
2022/08/07 11:34:47;;;;;;;10.63;8.33;;;;;;;29.17;51.10;94711.59;5034016;28;20486;-78
2022/08/07 11:37:31;;;;;;;9.83;6.73;;;;;;;29.33;50.63;94724.25;5033432;28;20929;-79
2022/08/07 11:40:10;;;;;;;8.33;7.67;;;;;;;29.46;48.78;94702.25;5033005;28;20538;-80
2022/08/07 11:42:50;;;;;;;7.73;7.10;;;;;;;29.60;48.58;94700.81;5034048;28;20454;-80
2022/08/07 11:45:28;;;;;;;9.07;8.17;;;;;;;29.69;48.17;94714.72;5034462;28;20454;-81
2022/08/07 11:48:15;;;;;;;9.47;8.67;;;;;;;29.72;49.62;94702.56;5034444;28;20446;-79
2022/08/07 11:51:00;;;;;;;8.83;8.03;;;;;;;29.66;49.18;94695.47;5028339;28;20801;-80
2022/08/07 11:53:40;;;;;;;8.80;7.60;;;;;;;29.68;49.00;94704.97;5028149;28;20446;-82
2022/08/07 11:56:25;;;;;;;9.43;7.57;;;;;;;29.30;49.17;94713.94;5032699;28;20489;-81
2022/08/07 11:59:06;;;;;;;12.93;8.77;;;;;;;29.04;50.60;94718.19;5033147;28;20454;-79
2022/08/07 12:01:49;;;;;;;12.13;8.27;;;;;;;28.93;50.97;94717.22;4986366;28;20446;-81
2022/08/07 12:04:36;;;;;;;8.40;7.60;;;;;;;28.88;51.33;94717.13;5025696;28;20541;-80
2022/08/07 12:07:10;;;;;;;8.57;7.67;;;;;;;28.73;50.23;94714.19;5032752;28;20442;-80
2022/08/07 12:09:46;;;;;;;9.70;8.80;;;;;;;28.59;50.32;94718.28;5024912;28;20478;-79
2022/08/07 12:12:17;;;;;;;9.47;8.50;;;;;;;28.52;51.72;94714.91;5023631;28;20797;-78
2022/08/07 12:14:48;;;;;;;9.27;8.47;;;;;;;28.68;51.82;94722.22;5033196;28;20490;-79
2022/08/07 12:17:19;;;;;;;8.77;8.07;;;;;;;28.71;53.17;94719.03;5033318;28;20848;-81
2022/08/07 12:19:55;;;;;;;9.97;9.07;;;;;;;28.61;51.83;94719.66;5033080;28;20454;-81
2022/08/07 12:22:40;;;;;;;9.47;8.67;;;;;;;28.65;53.07;94714.59;5012124;28;20449;-81
2022/08/07 12:28:06;;;;;;;11.07;10.00;;;;;;;28.68;53.29;94697.91;5033170;28;20446;-81
2022/08/07 12:30:37;;;;;;;8.33;7.53;;;;;;;28.78;54.32;94700.75;5032647;28;20538;-78
2022/08/07 12:33:11;;;;;;;9.37;8.40;;;;;;;28.91;52.48;94695.06;5032524;28;20462;-80